createdAt,value
2017-10-13T00:00:31.835Z,1023.18
2017-10-13T00:01:53.716Z,1023.17
2017-10-13T00:03:15.284Z,1023.19
2017-10-13T00:04:36.912Z,1023.23
2017-10-13T00:05:59.145Z,1023.19
2017-10-13T00:07:21.766Z,1023.26
2017-10-13T00:08:44.000Z,1023.24
2017-10-13T00:10:06.205Z,1023.28
2017-10-13T00:11:28.774Z,1023.28
2017-10-13T00:12:51.346Z,1023.27
2017-10-13T00:14:12.966Z,1023.23
2017-10-13T00:15:35.203Z,1023.26
2017-10-13T00:16:57.886Z,1023.32
2017-10-13T00:18:20.113Z,1023.31
2017-10-13T00:19:42.011Z,1023.33
2017-10-13T00:21:04.235Z,1023.27
2017-10-13T00:22:26.462Z,1023.31
2017-10-13T00:23:48.025Z,1023.28
2017-10-13T00:25:10.276Z,1023.33
2017-10-13T00:26:32.526Z,1023.35
2017-10-13T00:27:54.735Z,1023.35
2017-10-13T00:29:16.632Z,1023.34
2017-10-13T00:30:38.613Z,1023.28
2017-10-13T00:32:00.866Z,1023.37
2017-10-13T00:33:23.076Z,1023.33
2017-10-13T00:34:45.757Z,1023.32
2017-10-13T00:36:07.996Z,1023.31
2017-10-13T00:37:29.575Z,1023.33
2017-10-13T00:38:51.816Z,1023.28
2017-10-13T00:40:13.707Z,1023.27
2017-10-13T00:41:36.456Z,1023.31
2017-10-13T00:42:58.695Z,1023.31
2017-10-13T00:44:21.237Z,1023.27
2017-10-13T00:45:43.896Z,1023.28
2017-10-13T00:47:06.149Z,1023.22
2017-10-13T00:48:28.397Z,1023.22
2017-10-13T00:49:50.957Z,1023.26
2017-10-13T00:51:12.836Z,1023.21
2017-10-13T00:52:35.066Z,1023.24
2017-10-13T00:53:57.645Z,1023.25
2017-10-13T00:55:19.975Z,1023.21
2017-10-13T00:56:41.196Z,1023.2
2017-10-13T00:58:03.770Z,1023.2
2017-10-13T00:59:25.664Z,1023.23
2017-10-13T01:00:47.224Z,1023.19
2017-10-13T01:02:09.584Z,1023.19
2017-10-13T01:03:31.482Z,1023.23
2017-10-13T01:04:52.703Z,1023.22
2017-10-13T01:06:14.595Z,1023.23
2017-10-13T01:07:36.584Z,1023.22
2017-10-13T01:08:58.476Z,1023.23
2017-10-13T01:10:20.695Z,1023.24
2017-10-13T01:11:42.224Z,1023.21
2017-10-13T01:13:04.406Z,1023.19
2017-10-13T01:14:26.620Z,1023.24
2017-10-13T01:15:48.253Z,1023.25
2017-10-13T01:17:10.251Z,1023.22
2017-10-13T01:18:31.897Z,1023.27
2017-10-13T01:19:54.155Z,1023.24
2017-10-13T01:21:16.386Z,1023.26
2017-10-13T01:22:38.608Z,1023.23
2017-10-13T01:24:01.081Z,1023.28
2017-10-13T01:25:23.316Z,1023.25
2017-10-13T01:26:45.914Z,1023.22
2017-10-13T01:28:07.474Z,1023.27
2017-10-13T01:29:29.697Z,1023.28
2017-10-13T01:30:52.256Z,1023.3
2017-10-13T01:32:14.516Z,1023.31
2017-10-13T01:33:36.756Z,1023.31
2017-10-13T01:34:59.416Z,1023.28
2017-10-13T01:36:21.684Z,1023.25
2017-10-13T01:37:43.944Z,1023.29
2017-10-13T01:39:05.627Z,1023.29
2017-10-13T01:40:27.876Z,1023.3
2017-10-13T01:41:50.195Z,1023.27
2017-10-13T01:43:11.755Z,1023.29
2017-10-13T01:44:33.974Z,1023.27
2017-10-13T01:45:56.208Z,1023.3
2017-10-13T01:47:18.773Z,1023.32
2017-10-13T01:48:40.326Z,1023.29
2017-10-13T01:50:02.598Z,1023.29
2017-10-13T01:51:25.448Z,1023.31
2017-10-13T01:52:47.802Z,1023.29
2017-10-13T01:54:09.718Z,1023.3
2017-10-13T01:55:31.939Z,1023.28
2017-10-13T01:56:54.210Z,1023.29
2017-10-13T01:58:16.086Z,1023.27
2017-10-13T01:59:37.964Z,1023.26
2017-10-13T02:00:59.504Z,1023.25
2017-10-13T02:02:22.055Z,1023.32
2017-10-13T02:03:43.948Z,1023.29
2017-10-13T02:05:05.838Z,1023.29
2017-10-13T02:06:28.396Z,1023.32
2017-10-13T02:07:50.439Z,1023.29
2017-10-13T02:09:11.706Z,1023.28
2017-10-13T02:10:33.926Z,1023.29
2017-10-13T02:11:56.154Z,1023.31
2017-10-13T02:13:18.377Z,1023.32
2017-10-13T02:14:40.604Z,1023.33
2017-10-13T02:16:02.515Z,1023.32
2017-10-13T02:17:24.408Z,1023.37
2017-10-13T02:18:46.397Z,1023.42
2017-10-13T02:20:08.293Z,1023.4
2017-10-13T02:21:30.263Z,1023.44
2017-10-13T02:22:52.484Z,1023.44
2017-10-13T02:24:15.074Z,1023.44
2017-10-13T02:25:37.409Z,1023.39
2017-10-13T02:26:59.616Z,1023.39
2017-10-13T02:28:21.835Z,1023.4
2017-10-13T02:29:43.736Z,1023.32
2017-10-13T02:31:05.625Z,1023.4
2017-10-13T02:32:27.849Z,1023.4
2017-10-13T02:33:49.404Z,1023.36
2017-10-13T02:35:11.298Z,1023.34
2017-10-13T02:36:33.965Z,1023.36
2017-10-13T02:37:55.537Z,1023.33
2017-10-13T02:39:18.093Z,1023.32
2017-10-13T02:40:39.685Z,1023.37
2017-10-13T02:42:01.886Z,1023.35
2017-10-13T02:43:24.167Z,1023.34
2017-10-13T02:44:46.050Z,1023.34
2017-10-13T02:46:07.619Z,1023.3
2017-10-13T02:47:29.174Z,1023.3
2017-10-13T02:48:51.414Z,1023.31
2017-10-13T02:50:13.634Z,1023.34
2017-10-13T02:51:35.874Z,1023.36
2017-10-13T02:52:57.763Z,1023.36
2017-10-13T02:54:19.654Z,1023.33
2017-10-13T02:55:41.209Z,1023.34
2017-10-13T02:57:03.435Z,1023.25
2017-10-13T02:58:25.315Z,1023.23
2017-10-13T02:59:47.886Z,1023.21
2017-10-13T03:01:09.446Z,1023.24
2017-10-13T03:02:31.866Z,1023.25
2017-10-13T03:03:54.224Z,1023.32
2017-10-13T03:05:16.256Z,1023.31
2017-10-13T03:06:38.214Z,1023.31
2017-10-13T03:08:00.474Z,1023.31
2017-10-13T03:09:22.706Z,1023.32
2017-10-13T03:10:44.622Z,1023.39
2017-10-13T03:12:05.924Z,1023.41
2017-10-13T03:13:28.195Z,1023.43
2017-10-13T03:14:50.427Z,1023.42
2017-10-13T03:16:12.766Z,1023.42
2017-10-13T03:17:34.974Z,1023.44
2017-10-13T03:18:57.185Z,1023.46
2017-10-13T03:20:19.124Z,1023.44
2017-10-13T03:21:40.684Z,1023.46
2017-10-13T03:23:02.564Z,1023.44
2017-10-13T03:24:24.439Z,1023.49
2017-10-13T03:25:45.990Z,1023.48
2017-10-13T03:27:08.205Z,1023.48
2017-10-13T03:28:30.203Z,1023.47
2017-10-13T03:29:52.155Z,1023.46
2017-10-13T03:31:14.486Z,1023.42
2017-10-13T03:32:36.041Z,1023.46
2017-10-13T03:33:58.294Z,1023.46
2017-10-13T03:35:20.202Z,1023.49
2017-10-13T03:36:42.093Z,1023.51
2017-10-13T03:38:03.646Z,1023.49
2017-10-13T03:39:25.894Z,1023.5
2017-10-13T03:40:47.104Z,1023.5
2017-10-13T03:42:09.362Z,1023.47
2017-10-13T03:43:31.579Z,1023.49
2017-10-13T03:44:53.133Z,1023.54
2017-10-13T03:46:15.011Z,1023.47
2017-10-13T03:47:36.913Z,1023.48
2017-10-13T03:48:59.143Z,1023.46
2017-10-13T03:50:21.023Z,1023.43
2017-10-13T03:51:42.900Z,1023.51
2017-10-13T03:53:04.845Z,1023.51
2017-10-13T03:54:26.719Z,1023.49
2017-10-13T03:55:48.964Z,1023.55
2017-10-13T03:57:11.216Z,1023.55
2017-10-13T03:58:33.774Z,1023.59
2017-10-13T03:59:56.005Z,1023.55
2017-10-13T04:01:18.225Z,1023.5
2017-10-13T04:02:40.769Z,1023.5
2017-10-13T04:04:03.357Z,1023.54
2017-10-13T04:05:25.910Z,1023.55
2017-10-13T04:06:47.135Z,1023.58
2017-10-13T04:08:09.384Z,1023.54
2017-10-13T04:09:31.604Z,1023.55
2017-10-13T04:10:53.163Z,1023.51
2017-10-13T04:12:15.740Z,1023.55
2017-10-13T04:13:37.966Z,1023.56
2017-10-13T04:14:59.281Z,1023.56
2017-10-13T04:16:21.847Z,1023.54
2017-10-13T04:17:44.047Z,1023.52
2017-10-13T04:19:06.270Z,1023.54
2017-10-13T04:20:27.814Z,1023.52
2017-10-13T04:21:49.805Z,1023.53
2017-10-13T04:23:11.675Z,1023.53
2017-10-13T04:24:33.533Z,1023.5
2017-10-13T04:25:55.114Z,1023.54
2017-10-13T04:27:17.002Z,1023.52
2017-10-13T04:28:38.893Z,1023.49
2017-10-13T04:30:01.117Z,1023.48
2017-10-13T04:31:23.366Z,1023.54
2017-10-13T04:32:45.614Z,1023.44
2017-10-13T04:34:07.180Z,1023.48
2017-10-13T04:35:29.750Z,1023.59
2017-10-13T04:36:51.646Z,1023.52
2017-10-13T04:38:13.963Z,1023.52
2017-10-13T04:39:36.193Z,1023.5
2017-10-13T04:40:58.424Z,1023.51
2017-10-13T04:42:20.633Z,1023.58
2017-10-13T04:43:42.307Z,1023.55
2017-10-13T04:45:04.526Z,1023.53
2017-10-13T04:46:26.404Z,1023.53
2017-10-13T04:47:48.303Z,1023.57
2017-10-13T04:49:10.513Z,1023.56
2017-10-13T04:50:32.385Z,1023.66
2017-10-13T04:51:54.283Z,1023.59
2017-10-13T04:53:15.835Z,1023.58
2017-10-13T04:54:37.737Z,1023.57
2017-10-13T04:56:00.290Z,1023.59
2017-10-13T04:57:22.617Z,1023.53
2017-10-13T04:58:44.875Z,1023.53
2017-10-13T05:00:06.434Z,1023.51
2017-10-13T05:01:27.644Z,1023.57
2017-10-13T05:02:49.943Z,1023.5
2017-10-13T05:04:11.824Z,1023.45
2017-10-13T05:05:34.065Z,1023.5
2017-10-13T05:06:55.987Z,1023.5
2017-10-13T05:08:17.866Z,1023.55
2017-10-13T05:09:40.134Z,1023.53
2017-10-13T05:11:01.974Z,1023.54
2017-10-13T05:12:23.484Z,1023.66
2017-10-13T05:13:45.655Z,1023.7
2017-10-13T05:15:07.162Z,1023.68
2017-10-13T05:16:29.717Z,1023.69
2017-10-13T05:17:51.874Z,1023.72
2017-10-13T05:19:14.444Z,1023.69
2017-10-13T05:20:36.755Z,1023.79
2017-10-13T05:21:58.603Z,1023.82
2017-10-13T05:23:20.187Z,1023.79
2017-10-13T05:24:42.653Z,1023.83
2017-10-13T05:26:04.845Z,1023.8
2017-10-13T05:27:27.357Z,1023.84
2017-10-13T05:28:49.540Z,1023.84
2017-10-13T05:30:11.776Z,1023.87
2017-10-13T05:31:34.265Z,1023.92
2017-10-13T05:32:56.764Z,1023.91
2017-10-13T05:34:18.954Z,1023.89
2017-10-13T05:35:40.491Z,1023.93
2017-10-13T05:37:02.667Z,1023.9
2017-10-13T05:38:24.846Z,1023.93
2017-10-13T05:39:47.361Z,1023.9
2017-10-13T05:41:09.310Z,1023.85
2017-10-13T05:42:31.167Z,1023.9
2017-10-13T05:43:53.015Z,1023.94
2017-10-13T05:45:15.522Z,1023.91
2017-10-13T05:46:37.373Z,1023.85
2017-10-13T05:47:59.885Z,1023.87
2017-10-13T05:49:21.725Z,1023.84
2017-10-13T05:50:43.577Z,1023.81
2017-10-13T05:52:05.747Z,1023.79
2017-10-13T05:53:27.938Z,1023.81
2017-10-13T05:54:49.774Z,1023.84
2017-10-13T05:56:11.609Z,1023.82
2017-10-13T05:57:33.609Z,1023.84
2017-10-13T05:58:56.144Z,1023.9
2017-10-13T06:00:18.344Z,1023.89
2017-10-13T06:01:39.506Z,1023.86
2017-10-13T06:03:01.645Z,1023.89
2017-10-13T06:04:23.824Z,1023.89
2017-10-13T06:05:45.697Z,1023.97
2017-10-13T06:07:08.222Z,1023.87
2017-10-13T06:08:30.566Z,1023.95
2017-10-13T06:09:52.733Z,1023.98
2017-10-13T06:11:14.243Z,1023.93
2017-10-13T06:12:36.861Z,1023.88
2017-10-13T06:13:59.184Z,1023.88
2017-10-13T06:15:21.044Z,1023.85
2017-10-13T06:16:42.561Z,1023.9
2017-10-13T06:18:04.412Z,1023.92
2017-10-13T06:19:26.936Z,1023.89
2017-10-13T06:20:49.144Z,1023.93
2017-10-13T06:22:10.995Z,1023.96
2017-10-13T06:23:32.595Z,1023.98
2017-10-13T06:24:54.415Z,1024.03
2017-10-13T06:26:17.000Z,1024
2017-10-13T06:27:39.297Z,1023.98
2017-10-13T06:29:01.629Z,1023.95
2017-10-13T06:30:23.815Z,1023.98
2017-10-13T06:31:46.384Z,1023.99
2017-10-13T06:33:08.578Z,1024.03
2017-10-13T06:34:30.536Z,1024.06
2017-10-13T06:35:53.354Z,1024.04
2017-10-13T06:37:15.704Z,1024
2017-10-13T06:38:37.874Z,1023.97
2017-10-13T06:39:59.710Z,1024.01
2017-10-13T06:41:21.548Z,1024.02
2017-10-13T06:42:43.716Z,1024.09
2017-10-13T06:44:05.556Z,1024.07
2017-10-13T06:45:28.045Z,1024.06
2017-10-13T06:46:48.919Z,1024.09
2017-10-13T06:48:10.437Z,1024.13
2017-10-13T06:49:32.282Z,1024.14
2017-10-13T06:50:54.463Z,1024.17
2017-10-13T06:52:16.012Z,1024.18
2017-10-13T06:53:37.535Z,1024.19
2017-10-13T06:54:59.387Z,1024.19
2017-10-13T06:56:21.573Z,1024.24
2017-10-13T06:57:43.681Z,1024.23
2017-10-13T06:59:05.525Z,1024.24
2017-10-13T07:00:27.376Z,1024.28
2017-10-13T07:01:49.905Z,1024.3
2017-10-13T07:03:12.524Z,1024.33
2017-10-13T07:04:34.388Z,1024.37
2017-10-13T07:05:56.275Z,1024.35
2017-10-13T07:07:18.129Z,1024.36
2017-10-13T07:08:40.646Z,1024.29
2017-10-13T07:10:02.905Z,1024.23
2017-10-13T07:11:24.185Z,1024.26
2017-10-13T07:12:46.130Z,1024.25
2017-10-13T07:14:08.638Z,1024.26
2017-10-13T07:15:31.170Z,1024.29
2017-10-13T07:16:53.595Z,1024.29
2017-10-13T07:18:15.802Z,1024.27
2017-10-13T07:19:37.389Z,1024.31
2017-10-13T07:20:59.638Z,1024.26
2017-10-13T07:22:22.165Z,1024.3
2017-10-13T07:23:44.120Z,1024.29
2017-10-13T07:25:06.662Z,1024.29
2017-10-13T07:26:29.246Z,1024.31
2017-10-13T07:27:51.123Z,1024.31
2017-10-13T07:29:13.011Z,1024.37
2017-10-13T07:30:35.170Z,1024.39
2017-10-13T07:31:57.522Z,1024.41
2017-10-13T07:33:20.059Z,1024.44
2017-10-13T07:34:42.243Z,1024.42
2017-10-13T07:36:04.095Z,1024.44
2017-10-13T07:37:26.281Z,1024.42
2017-10-13T07:38:48.877Z,1024.41
2017-10-13T07:40:10.723Z,1024.45
2017-10-13T07:41:32.959Z,1024.44
2017-10-13T07:42:55.155Z,1024.43
2017-10-13T07:44:17.367Z,1024.43
2017-10-13T07:45:39.752Z,1024.48
2017-10-13T07:47:02.268Z,1024.4
2017-10-13T07:48:23.790Z,1024.41
2017-10-13T07:49:45.996Z,1024.39
2017-10-13T07:51:08.174Z,1024.37
2017-10-13T07:52:30.803Z,1024.42
2017-10-13T07:53:52.993Z,1024.38
2017-10-13T07:55:14.844Z,1024.37
2017-10-13T07:56:37.353Z,1024.34
2017-10-13T07:57:59.546Z,1024.37
2017-10-13T07:59:21.393Z,1024.34
2017-10-13T08:00:42.892Z,1024.34
2017-10-13T08:02:05.074Z,1024.33
2017-10-13T08:03:27.607Z,1024.36
2017-10-13T08:04:50.127Z,1024.41
2017-10-13T08:06:12.029Z,1024.44
2017-10-13T08:07:33.734Z,1024.47
2017-10-13T08:08:55.842Z,1024.47
2017-10-13T08:10:17.684Z,1024.47
2017-10-13T08:11:39.894Z,1024.49
2017-10-13T08:13:02.087Z,1024.52
2017-10-13T08:14:24.029Z,1024.49
2017-10-13T08:15:46.212Z,1024.51
2017-10-13T08:17:08.086Z,1024.44
2017-10-13T08:18:30.267Z,1024.44
2017-10-13T08:19:52.522Z,1024.45
2017-10-13T08:21:15.069Z,1024.44
2017-10-13T08:22:36.624Z,1024.44
2017-10-13T08:23:58.466Z,1024.44
2017-10-13T08:25:20.967Z,1024.42
2017-10-13T08:26:42.140Z,1024.43
2017-10-13T08:28:04.427Z,1024.42
2017-10-13T08:29:26.635Z,1024.44
2017-10-13T08:30:48.506Z,1024.45
2017-10-13T08:32:11.041Z,1024.43
2017-10-13T08:33:33.295Z,1024.45
2017-10-13T08:34:55.824Z,1024.47
2017-10-13T08:36:18.337Z,1024.5
2017-10-13T08:37:39.864Z,1024.49
2017-10-13T08:39:02.075Z,1024.47
2017-10-13T08:40:24.282Z,1024.53
2017-10-13T08:41:46.817Z,1024.53
2017-10-13T08:43:09.034Z,1024.56
2017-10-13T08:44:31.212Z,1024.57
2017-10-13T08:45:53.726Z,1024.62
2017-10-13T08:47:16.404Z,1024.63
2017-10-13T08:48:38.265Z,1024.63
2017-10-13T08:50:00.445Z,1024.63
2017-10-13T08:51:22.713Z,1024.62
2017-10-13T08:52:44.346Z,1024.66
2017-10-13T08:54:06.544Z,1024.66
2017-10-13T08:55:28.834Z,1024.66
2017-10-13T08:56:50.354Z,1024.71
2017-10-13T08:58:13.005Z,1024.6
2017-10-13T08:59:35.175Z,1024.72
2017-10-13T09:00:57.507Z,1024.7
2017-10-13T09:02:20.017Z,1024.78
2017-10-13T09:03:41.580Z,1024.77
2017-10-13T09:05:03.460Z,1024.77
2017-10-13T09:06:25.294Z,1024.85
2017-10-13T09:07:46.823Z,1024.86
2017-10-13T09:09:09.034Z,1024.84
2017-10-13T09:10:31.211Z,1024.86
2017-10-13T09:11:53.742Z,1024.88
2017-10-13T09:13:15.944Z,1024.84
2017-10-13T09:14:38.112Z,1024.85
2017-10-13T09:15:59.986Z,1024.82
2017-10-13T09:17:22.287Z,1024.83
2017-10-13T09:18:44.705Z,1024.8
2017-10-13T09:20:07.204Z,1024.82
2017-10-13T09:21:29.488Z,1024.8
2017-10-13T09:22:52.055Z,1024.87
2017-10-13T09:24:14.605Z,1024.86
2017-10-13T09:25:36.811Z,1024.88
2017-10-13T09:26:58.993Z,1024.87
2017-10-13T09:28:21.156Z,1024.92
2017-10-13T09:29:43.694Z,1024.91
2017-10-13T09:31:06.202Z,1024.89
2017-10-13T09:32:28.176Z,1024.92
2017-10-13T09:33:50.738Z,1024.91
2017-10-13T09:35:12.949Z,1024.89
2017-10-13T09:36:35.434Z,1024.93
2017-10-13T09:37:57.654Z,1024.91
2017-10-13T09:39:19.515Z,1024.91
2017-10-13T09:40:41.367Z,1024.88
2017-10-13T09:42:02.895Z,1024.85
2017-10-13T09:43:25.413Z,1024.86
2017-10-13T09:44:47.627Z,1024.83
2017-10-13T09:46:09.914Z,1024.83
2017-10-13T09:47:32.187Z,1024.91
2017-10-13T09:48:54.415Z,1024.9
2017-10-13T09:50:16.945Z,1024.91
2017-10-13T09:51:38.864Z,1024.91
2017-10-13T09:53:00.465Z,1024.95
2017-10-13T09:54:22.418Z,1024.97
2017-10-13T09:55:44.382Z,1025.01
2017-10-13T09:57:06.571Z,1025.03
2017-10-13T09:58:28.415Z,1025.03
2017-10-13T09:59:50.714Z,1025.02
2017-10-13T10:01:12.914Z,1025.04
2017-10-13T10:02:34.447Z,1025
2017-10-13T10:03:56.301Z,1025.01
2017-10-13T10:05:18.150Z,1025.01
2017-10-13T10:06:40.437Z,1025.05
2017-10-13T10:08:02.321Z,1025.05
2017-10-13T10:09:24.525Z,1025.09
2017-10-13T10:10:46.054Z,1025.16
2017-10-13T10:12:08.265Z,1025.13
2017-10-13T10:13:30.817Z,1025.13
2017-10-13T10:14:53.056Z,1025.08
2017-10-13T10:16:14.938Z,1025.1
2017-10-13T10:17:37.474Z,1025.1
2017-10-13T10:18:59.680Z,1025.05
2017-10-13T10:20:22.206Z,1025.09
2017-10-13T10:21:44.458Z,1025.08
2017-10-13T10:23:06.986Z,1025.06
2017-10-13T10:24:28.514Z,1025.06
2017-10-13T10:25:50.653Z,1025.11
2017-10-13T10:27:12.515Z,1025.07
2017-10-13T10:28:34.703Z,1025.06
2017-10-13T10:29:57.235Z,1025.05
2017-10-13T10:31:19.524Z,1025.07
2017-10-13T10:32:42.154Z,1025.05
2017-10-13T10:34:04.355Z,1025.06
2017-10-13T10:35:26.866Z,1025.02
2017-10-13T10:36:49.140Z,1025.03
2017-10-13T10:38:11.348Z,1025.05
2017-10-13T10:39:33.264Z,1025.06
2017-10-13T10:40:54.807Z,1025
2017-10-13T10:42:17.337Z,1024.99
2017-10-13T10:43:39.544Z,1024.88
2017-10-13T10:45:01.390Z,1024.93
2017-10-13T10:46:23.665Z,1024.96
2017-10-13T10:47:45.866Z,1025.01
2017-10-13T10:49:07.805Z,1025.06
2017-10-13T10:50:29.994Z,1025.04
2017-10-13T10:51:51.654Z,1025.03
2017-10-13T10:53:14.273Z,1025.08
2017-10-13T10:54:36.486Z,1025.04
2017-10-13T10:55:59.056Z,1024.99
2017-10-13T10:57:21.597Z,1025.05
2017-10-13T10:58:43.767Z,1025.03
2017-10-13T11:00:05.955Z,1025.04
2017-10-13T11:01:28.167Z,1025.03
2017-10-13T11:02:50.685Z,1025.01
2017-10-13T11:04:12.976Z,1025.02
2017-10-13T11:05:35.185Z,1025
2017-10-13T11:06:57.037Z,1024.98
2017-10-13T11:08:18.897Z,1024.93
2017-10-13T11:09:41.487Z,1024.95
2017-10-13T11:11:03.770Z,1024.95
2017-10-13T11:12:26.304Z,1024.98
2017-10-13T11:13:48.511Z,1024.95
2017-10-13T11:15:10.714Z,1024.93
2017-10-13T11:16:32.895Z,1024.92
2017-10-13T11:17:55.415Z,1024.89
2017-10-13T11:19:17.586Z,1024.89
2017-10-13T11:20:39.766Z,1024.85
2017-10-13T11:22:01.293Z,1024.86
2017-10-13T11:23:23.146Z,1024.86
2017-10-13T11:24:44.997Z,1024.88
2017-10-13T11:26:06.845Z,1024.88
2017-10-13T11:27:29.375Z,1024.85
2017-10-13T11:28:51.913Z,1024.87
2017-10-13T11:30:14.085Z,1024.9
2017-10-13T11:31:36.617Z,1024.95
2017-10-13T11:32:58.808Z,1024.97
2017-10-13T11:34:21.004Z,1025
2017-10-13T11:35:42.610Z,1025.02
2017-10-13T11:37:05.226Z,1025
2017-10-13T11:38:27.492Z,1024.94
2017-10-13T11:39:49.355Z,1024.92
2017-10-13T11:41:11.925Z,1024.89
2017-10-13T11:42:34.120Z,1024.88
2017-10-13T11:43:56.088Z,1024.79
2017-10-13T11:45:18.383Z,1024.77
2017-10-13T11:46:40.985Z,1024.77
2017-10-13T11:48:02.842Z,1024.79
2017-10-13T11:49:25.380Z,1024.72
2017-10-13T11:50:48.021Z,1024.76
2017-10-13T11:52:10.215Z,1024.75
2017-10-13T11:53:32.794Z,1024.72
2017-10-13T11:54:55.317Z,1024.72
2017-10-13T11:56:17.516Z,1024.72
2017-10-13T11:57:39.455Z,1024.79
2017-10-13T11:59:00.667Z,1024.76
2017-10-13T12:00:22.571Z,1024.71
2017-10-13T12:01:44.436Z,1024.67
2017-10-13T12:03:06.623Z,1024.69
2017-10-13T12:04:28.494Z,1024.73
2017-10-13T12:05:51.169Z,1024.72
2017-10-13T12:07:13.364Z,1024.7
2017-10-13T12:08:35.226Z,1024.66
2017-10-13T12:09:57.794Z,1024.74
2017-10-13T12:11:19.645Z,1024.79
2017-10-13T12:12:41.848Z,1024.8
2017-10-13T12:14:04.074Z,1024.84
2017-10-13T12:15:26.575Z,1024.82
2017-10-13T12:16:48.584Z,1024.79
2017-10-13T12:18:10.864Z,1024.78
2017-10-13T12:19:32.757Z,1024.79
2017-10-13T12:20:54.653Z,1024.74
2017-10-13T12:22:16.866Z,1024.74
2017-10-13T12:23:39.481Z,1024.76
2017-10-13T12:25:01.347Z,1024.69
2017-10-13T12:26:23.546Z,1024.76
2017-10-13T12:27:45.811Z,1024.72
2017-10-13T12:29:07.987Z,1024.75
2017-10-13T12:30:30.223Z,1024.72
2017-10-13T12:31:53.056Z,1024.76
2017-10-13T12:33:15.317Z,1024.71
2017-10-13T12:34:37.497Z,1024.75
2017-10-13T12:36:00.315Z,1024.72
2017-10-13T12:37:22.324Z,1024.65
2017-10-13T12:38:44.564Z,1024.64
2017-10-13T12:40:07.084Z,1024.65
2017-10-13T12:41:29.381Z,1024.63
2017-10-13T12:42:51.631Z,1024.6
2017-10-13T12:44:13.842Z,1024.56
2017-10-13T12:45:36.024Z,1024.55
2017-10-13T12:46:57.932Z,1024.51
2017-10-13T12:48:20.465Z,1024.47
2017-10-13T12:49:42.997Z,1024.5
2017-10-13T12:51:05.195Z,1024.49
2017-10-13T12:52:27.467Z,1024.48
2017-10-13T12:53:49.661Z,1024.52
2017-10-13T12:55:11.862Z,1024.57
2017-10-13T12:56:33.733Z,1024.53
2017-10-13T12:57:55.575Z,1024.57
2017-10-13T12:59:17.814Z,1024.56
2017-10-13T13:00:40.094Z,1024.52
2017-10-13T13:02:01.952Z,1024.53
2017-10-13T13:03:24.485Z,1024.53
2017-10-13T13:04:46.387Z,1024.51
2017-10-13T13:06:08.257Z,1024.52
2017-10-13T13:07:30.784Z,1024.49
2017-10-13T13:08:53.365Z,1024.5
2017-10-13T13:10:15.791Z,1024.46
2017-10-13T13:11:37.981Z,1024.46
2017-10-13T13:12:59.185Z,1024.47
2017-10-13T13:14:21.405Z,1024.52
2017-10-13T13:15:43.906Z,1024.49
2017-10-13T13:17:06.114Z,1024.48
2017-10-13T13:18:27.974Z,1024.5
2017-10-13T13:19:50.605Z,1024.5
2017-10-13T13:21:12.796Z,1024.53
2017-10-13T13:22:35.042Z,1024.52
2017-10-13T13:23:57.555Z,1024.51
2017-10-13T13:25:19.414Z,1024.52
2017-10-13T13:26:41.312Z,1024.51
2017-10-13T13:28:03.502Z,1024.5
2017-10-13T13:29:25.723Z,1024.49
2017-10-13T13:30:47.944Z,1024.52
2017-10-13T13:32:10.500Z,1024.53
2017-10-13T13:33:32.347Z,1024.52
2017-10-13T13:34:54.534Z,1024.56
2017-10-13T13:36:16.739Z,1024.47
2017-10-13T13:37:39.038Z,1024.42
2017-10-13T13:39:01.557Z,1024.37
2017-10-13T13:40:23.735Z,1024.44
2017-10-13T13:41:46.416Z,1024.36
2017-10-13T13:43:08.954Z,1024.32
2017-10-13T13:44:31.478Z,1024.26
2017-10-13T13:45:53.676Z,1024.26
2017-10-13T13:47:16.217Z,1024.28
2017-10-13T13:48:38.603Z,1024.3
2017-10-13T13:50:00.480Z,1024.26
2017-10-13T13:51:22.696Z,1024.26
2017-10-13T13:52:44.924Z,1024.25
2017-10-13T13:54:07.103Z,1024.2
2017-10-13T13:55:29.064Z,1024.18
2017-10-13T13:56:51.276Z,1024.19
2017-10-13T13:58:13.833Z,1024.2
2017-10-13T13:59:35.707Z,1024.2
2017-10-13T14:00:57.895Z,1024.25
2017-10-13T14:02:20.097Z,1024.25
2017-10-13T14:03:42.634Z,1024.28
2017-10-13T14:05:04.514Z,1024.32
2017-10-13T14:06:26.370Z,1024.3
2017-10-13T14:07:48.544Z,1024.29
2017-10-13T14:09:10.732Z,1024.28
2017-10-13T14:10:32.584Z,1024.31
2017-10-13T14:11:54.434Z,1024.3
2017-10-13T14:13:15.937Z,1024.27
2017-10-13T14:14:37.460Z,1024.31
2017-10-13T14:15:59.693Z,1024.29
2017-10-13T14:17:21.888Z,1024.34
2017-10-13T14:18:44.435Z,1024.34
2017-10-13T14:20:06.678Z,1024.31
2017-10-13T14:21:28.544Z,1024.29
2017-10-13T14:22:50.721Z,1024.31
2017-10-13T14:24:12.251Z,1024.28
2017-10-13T14:25:34.788Z,1024.29
2017-10-13T14:26:57.001Z,1024.31
2017-10-13T14:28:19.194Z,1024.32
2017-10-13T14:29:41.494Z,1024.3
2017-10-13T14:31:03.743Z,1024.33
2017-10-13T14:32:26.357Z,1024.35
2017-10-13T14:33:48.962Z,1024.38
2017-10-13T14:35:10.844Z,1024.36
2017-10-13T14:36:33.157Z,1024.42
2017-10-13T14:37:54.674Z,1024.4
2017-10-13T14:39:17.266Z,1024.41
2017-10-13T14:40:39.143Z,1024.44
2017-10-13T14:42:01.744Z,1024.43
2017-10-13T14:43:24.254Z,1024.42
2017-10-13T14:44:46.477Z,1024.39
2017-10-13T14:46:08.693Z,1024.37
2017-10-13T14:47:30.533Z,1024.37
2017-10-13T14:48:52.153Z,1024.41
2017-10-13T14:50:13.662Z,1024.34
2017-10-13T14:51:36.241Z,1024.38
2017-10-13T14:52:57.095Z,1024.39
2017-10-13T14:54:19.671Z,1024.36
2017-10-13T14:55:41.875Z,1024.38
2017-10-13T14:57:04.417Z,1024.32
2017-10-13T14:58:26.595Z,1024.37
2017-10-13T14:59:48.894Z,1024.4
2017-10-13T15:01:10.427Z,1024.39
2017-10-13T15:02:32.635Z,1024.41
2017-10-13T15:03:54.876Z,1024.49
2017-10-13T15:05:17.163Z,1024.47
2017-10-13T15:06:39.684Z,1024.46
2017-10-13T15:08:02.213Z,1024.48
2017-10-13T15:09:24.116Z,1024.49
2017-10-13T15:10:45.960Z,1024.5
2017-10-13T15:12:07.813Z,1024.52
2017-10-13T15:13:30.414Z,1024.55
2017-10-13T15:14:52.633Z,1024.57
2017-10-13T15:16:14.844Z,1024.64
2017-10-13T15:17:37.377Z,1024.59
2017-10-13T15:18:59.893Z,1024.65
2017-10-13T15:20:22.407Z,1024.68
2017-10-13T15:21:44.271Z,1024.66
2017-10-13T15:23:06.473Z,1024.6
2017-10-13T15:24:28.651Z,1024.59
2017-10-13T15:25:50.838Z,1024.59
2017-10-13T15:27:13.026Z,1024.54
2017-10-13T15:28:35.611Z,1024.54
2017-10-13T15:29:57.813Z,1024.53
2017-10-13T15:31:19.691Z,1024.52
2017-10-13T15:32:41.518Z,1024.59
2017-10-13T15:34:03.485Z,1024.59
2017-10-13T15:35:26.025Z,1024.55
2017-10-13T15:36:47.893Z,1024.61
2017-10-13T15:38:09.424Z,1024.58
2017-10-13T15:39:31.322Z,1024.56
2017-10-13T15:40:53.580Z,1024.49
2017-10-13T15:42:16.096Z,1024.6
2017-10-13T15:43:38.281Z,1024.51
2017-10-13T15:45:00.464Z,1024.51
2017-10-13T15:46:22.345Z,1024.51
2017-10-13T15:47:44.927Z,1024.55
2017-10-13T15:49:07.099Z,1024.54
2017-10-13T15:50:29.374Z,1024.52
2017-10-13T15:51:51.915Z,1024.51
2017-10-13T15:53:14.453Z,1024.53
2017-10-13T15:54:36.340Z,1024.41
2017-10-13T15:55:58.712Z,1024.45
2017-10-13T15:57:20.655Z,1024.45
2017-10-13T15:58:42.657Z,1024.48
2017-10-13T16:00:04.891Z,1024.5
2017-10-13T16:01:27.560Z,1024.49
2017-10-13T16:02:49.791Z,1024.52
2017-10-13T16:04:12.319Z,1024.5
2017-10-13T16:05:35.004Z,1024.54
2017-10-13T16:06:57.545Z,1024.55
2017-10-13T16:08:19.909Z,1024.56
2017-10-13T16:09:42.113Z,1024.54
2017-10-13T16:11:04.705Z,1024.6
2017-10-13T16:12:26.924Z,1024.61
2017-10-13T16:13:49.164Z,1024.62
2017-10-13T16:15:10.705Z,1024.59
2017-10-13T16:16:32.603Z,1024.62
2017-10-13T16:17:54.814Z,1024.65
2017-10-13T16:19:16.735Z,1024.63
2017-10-13T16:20:38.583Z,1024.64
2017-10-13T16:22:00.442Z,1024.61
2017-10-13T16:23:22.391Z,1024.65
2017-10-13T16:24:44.574Z,1024.63
2017-10-13T16:26:07.105Z,1024.6
2017-10-13T16:27:29.001Z,1024.59
2017-10-13T16:28:51.265Z,1024.58
2017-10-13T16:30:13.495Z,1024.56
2017-10-13T16:31:35.373Z,1024.58
2017-10-13T16:32:57.265Z,1024.58
2017-10-13T16:34:19.503Z,1024.58
2017-10-13T16:35:42.046Z,1024.62
2017-10-13T16:37:04.633Z,1024.6